Auburn, NE

8:27 PM CST on December 21, 2014 (GMT -0600)
Nebraska City Municipal | Change Station
CLOSE
Current Station
Airport
Location: Nebraska City,
Elevation: 1161 ft
Nearby Weather Stations

Elev 1161 ft 40.61 °N, 95.86 °W | Updated 12 minutes ago

Overcast
Overcast
42 °F
Feels Like 34 °F
N
15
Wind Variable Wind from South

Today
High -- | Low -- °F
--% Chance of Precip.
Yesterday
High -- | Low -- °F
Precip. -- in
7:42 AM 5:00 PM
New Moon, 0% visible
Pressure 29.69 in
Visibility 2.5 miles
Clouds Overcast 400 ft
Windchill 34 °F
Dew Point 42 °F
Humidity 100%
Rainfall 0.00 in
Snow Depth Not available.
UV 0 out of 12
Pollen .10 out of 12
Air Quality Not available.
Flu Activity Not available.
METAR KAFK 220215Z AUTO 17013KT 2 1/2SM -RA OVC004 05/05 A2969 RMK AO2 T00530053

More Conditions Fewer Conditions

Pressure 29.69 in
Visibility 2.5 miles
Clouds Overcast 400 ft
Windchill 34 °F
Dew Point 42 °F
Humidity 100%
Rainfall 0.00 in
Snow Depth Not available.
UV 0 out of 12
Pollen .10 out of 12
Air Quality Not available.
Flu Activity Not available.
METAR KAFK 220215Z AUTO 17013KT 2 1/2SM -RA OVC004 05/05 A2969 RMK AO2 T00530053

More Conditions Fewer Conditions

10-Day Weather Forecast

Almanac

Astronomy

Dec. 21, 2014 Rise Set
Actual Time
Civil Twilight
Nautical Twilight
Astronomical Twilight
Moon
Length of Visible Light
Length of Day
Tomorrow will be .
, % of the Moon is Illuminated

Today's Extremes

State Highs State Lows

Community

WunderPhotos

Upload Photos

1,779,525 photos uploaded!

WunderBlogs® & News

Nearby

Air Quality

  Air Quality AQ Index Pollutant
Not available.

Snow Depth

Station Depth Elevation

Earthquake Activity

City Distance Mag. Time & Date
Minimum magnitude displayed is 2.5.

Coastal Water Temperatures

Place Temperature

Nearby Weather Stations